createdAt,value
2018-09-19T00:01:17.304Z,1.60
2018-09-19T00:03:45.023Z,1.53
2018-09-19T00:06:12.543Z,1.60
2018-09-19T00:08:39.996Z,1.50
2018-09-19T00:11:07.702Z,1.30
2018-09-19T00:13:35.152Z,1.30
2018-09-19T00:16:02.642Z,1.43
2018-09-19T00:18:30.356Z,1.40
2018-09-19T00:20:57.826Z,1.43
2018-09-19T00:23:25.282Z,1.57
2018-09-19T00:25:52.828Z,1.13
2018-09-19T00:28:20.379Z,1.30
2018-09-19T00:30:47.826Z,1.27
2018-09-19T00:33:15.584Z,1.40
2018-09-19T00:35:43.049Z,1.43
2018-09-19T00:38:10.515Z,1.60
2018-09-19T00:40:38.290Z,1.50
2018-09-19T00:43:05.746Z,1.60
2018-09-19T00:45:33.202Z,1.50
2018-09-19T00:48:00.723Z,1.70
2018-09-19T00:50:28.209Z,1.40
2018-09-19T00:52:55.686Z,1.50
2018-09-19T00:55:23.530Z,1.30
2018-09-19T00:57:51.005Z,1.80
2018-09-19T01:00:18.497Z,1.80
2018-09-19T01:02:46.229Z,2.27
2018-09-19T01:05:13.666Z,2.17
2018-09-19T01:07:41.094Z,2.00
2018-09-19T01:10:08.674Z,2.33
2018-09-19T01:12:36.102Z,2.20
2018-09-19T01:15:03.598Z,2.20
2018-09-19T01:17:31.268Z,2.90
2018-09-19T01:19:58.801Z,2.20
2018-09-19T01:22:26.239Z,2.33
2018-09-19T01:24:53.831Z,2.30
2018-09-19T01:27:21.299Z,2.13
2018-09-19T01:29:48.869Z,2.60
2018-09-19T01:32:16.478Z,2.13
2018-09-19T01:34:43.933Z,2.73
2018-09-19T01:37:11.386Z,2.33
2018-09-19T01:39:39.021Z,2.40
2018-09-19T01:42:06.659Z,2.70
2018-09-19T01:44:34.081Z,2.13
2018-09-19T01:47:01.716Z,2.53
2018-09-19T01:49:29.184Z,2.30
2018-09-19T01:51:56.576Z,2.60
2018-09-19T01:54:24.723Z,2.40
2018-09-19T01:56:52.724Z,2.57
2018-09-19T01:59:20.147Z,2.47
2018-09-19T02:01:47.891Z,2.70
2018-09-19T02:04:15.589Z,2.40
2018-09-19T02:06:43.007Z,2.17
2018-09-19T02:09:12.008Z,2.53
2018-09-19T02:11:39.959Z,2.67
2018-09-19T02:14:07.733Z,2.63
2018-09-19T02:16:35.362Z,2.30
2018-09-19T02:19:02.795Z,2.53
2018-09-19T02:21:30.243Z,2.43
2018-09-19T02:23:57.897Z,2.67
2018-09-19T02:26:25.372Z,2.50
2018-09-19T02:28:52.912Z,2.33
2018-09-19T02:31:20.574Z,2.10
2018-09-19T02:33:47.970Z,2.57
2018-09-19T02:36:22.007Z,2.90
2018-09-19T02:38:50.037Z,2.70
2018-09-19T02:41:17.691Z,2.57
2018-09-19T02:43:45.302Z,3.13
2018-09-19T02:46:12.940Z,2.97
2018-09-19T02:48:40.450Z,2.87
2018-09-19T02:51:08.013Z,3.33
2018-09-19T02:53:35.624Z,2.70
2018-09-19T02:56:03.146Z,3.27
2018-09-19T02:58:30.850Z,3.30
2018-09-19T03:00:58.596Z,3.03
2018-09-19T03:03:25.969Z,3.23
2018-09-19T03:05:53.472Z,3.20
2018-09-19T03:08:21.071Z,3.03
2018-09-19T03:10:48.506Z,4.00
2018-09-19T03:13:16.023Z,3.10
2018-09-19T03:15:43.650Z,3.63
2018-09-19T03:18:11.023Z,3.43
2018-09-19T03:20:38.502Z,3.43
2018-09-19T03:23:06.267Z,3.37
2018-09-19T03:25:33.730Z,3.60
2018-09-19T03:28:01.162Z,3.40
2018-09-19T03:30:28.804Z,3.30
2018-09-19T03:32:56.235Z,3.30
2018-09-19T03:35:23.757Z,3.10
2018-09-19T03:37:51.361Z,3.67
2018-09-19T03:40:18.791Z,3.70
2018-09-19T03:42:46.242Z,3.27
2018-09-19T03:45:14.082Z,3.67
2018-09-19T03:47:41.519Z,4.37
2018-09-19T03:50:09.011Z,3.80
2018-09-19T03:52:36.654Z,3.50
2018-09-19T03:55:04.164Z,3.60
2018-09-19T03:57:31.628Z,3.50
2018-09-19T03:59:59.546Z,3.43
2018-09-19T04:02:26.973Z,3.50
2018-09-19T04:04:54.477Z,3.80
2018-09-19T04:07:22.048Z,3.87
2018-09-19T04:09:49.455Z,4.13
2018-09-19T04:12:16.962Z,3.80
2018-09-19T04:14:44.489Z,3.67
2018-09-19T04:17:11.961Z,3.90
2018-09-19T04:19:39.440Z,3.93
2018-09-19T04:22:07.079Z,3.47
2018-09-19T04:24:34.518Z,4.33
2018-09-19T04:27:03.012Z,3.90
2018-09-19T04:29:30.660Z,3.57
2018-09-19T04:31:58.227Z,3.77
2018-09-19T04:34:25.696Z,3.77
2018-09-19T04:36:53.371Z,3.20
2018-09-19T04:39:20.857Z,3.80
2018-09-19T04:41:48.279Z,3.50
2018-09-19T04:44:15.832Z,3.77
2018-09-19T04:46:43.321Z,4.10
2018-09-19T04:49:10.747Z,3.60
2018-09-19T04:51:39.521Z,3.47
2018-09-19T04:54:06.908Z,3.57
2018-09-19T04:56:34.721Z,4.10
2018-09-19T04:59:02.260Z,3.70
2018-09-19T05:01:29.964Z,4.07
2018-09-19T05:03:57.611Z,3.60
2018-09-19T05:06:25.581Z,3.20
2018-09-19T05:08:53.063Z,3.47
2018-09-19T05:11:20.862Z,3.90
2018-09-19T05:13:48.490Z,3.77
2018-09-19T05:16:15.994Z,4.23
2018-09-19T05:18:43.467Z,4.77
2018-09-19T05:21:11.152Z,4.20
2018-09-19T05:23:38.654Z,4.07
2018-09-19T05:26:06.158Z,4.53
2018-09-19T05:28:33.773Z,4.57
2018-09-19T05:31:01.235Z,4.10
2018-09-19T05:33:28.685Z,4.63
2018-09-19T05:35:56.460Z,4.80
2018-09-19T05:38:23.922Z,3.80
2018-09-19T05:40:51.391Z,3.80
2018-09-19T05:43:19.087Z,3.80
2018-09-19T05:45:46.492Z,4.40
2018-09-19T05:48:13.924Z,4.27
2018-09-19T05:50:41.576Z,3.93
2018-09-19T05:53:09.040Z,4.63
2018-09-19T05:55:36.441Z,4.30
2018-09-19T05:58:03.971Z,4.33
2018-09-19T06:00:31.485Z,4.10
2018-09-19T06:02:59.103Z,4.40
2018-09-19T06:05:26.747Z,4.47
2018-09-19T06:07:54.243Z,4.70
2018-09-19T06:10:21.674Z,5.00
2018-09-19T06:12:49.408Z,4.53
2018-09-19T06:15:16.967Z,4.73
2018-09-19T06:17:44.565Z,4.57
2018-09-19T06:20:12.198Z,4.70
2018-09-19T06:22:39.696Z,4.87
2018-09-19T06:25:07.257Z,4.33
2018-09-19T06:27:34.838Z,4.60
2018-09-19T06:30:02.340Z,5.57
2018-09-19T06:32:29.814Z,4.03
2018-09-19T06:34:57.364Z,5.27
2018-09-19T06:37:24.799Z,4.93
2018-09-19T06:39:52.284Z,4.93
2018-09-19T06:42:19.915Z,5.30
2018-09-19T06:44:47.379Z,5.13
2018-09-19T06:47:14.859Z,5.10
2018-09-19T06:49:42.521Z,5.50
2018-09-19T06:52:09.959Z,5.20
2018-09-19T06:54:37.450Z,5.50
2018-09-19T06:57:05.063Z,5.40
2018-09-19T06:59:32.551Z,5.30
2018-09-19T07:01:59.949Z,4.80
2018-09-19T07:04:27.924Z,5.47
2018-09-19T07:06:55.386Z,5.60
2018-09-19T07:09:22.804Z,5.87
2018-09-19T07:11:50.415Z,5.63
2018-09-19T07:14:17.908Z,5.87
2018-09-19T07:16:45.432Z,7.30
2018-09-19T07:19:13.082Z,6.30
2018-09-19T07:21:40.500Z,5.97
2018-09-19T07:24:07.982Z,6.70
2018-09-19T07:26:35.738Z,6.37
2018-09-19T07:29:03.199Z,6.37
2018-09-19T07:31:30.699Z,6.93
2018-09-19T07:33:58.419Z,6.20
2018-09-19T07:36:25.833Z,6.87
2018-09-19T07:38:53.298Z,6.57
2018-09-19T07:41:20.989Z,6.10
2018-09-19T07:43:48.462Z,6.23
2018-09-19T07:46:15.937Z,7.10
2018-09-19T07:48:43.841Z,6.20
2018-09-19T07:51:11.270Z,7.13
2018-09-19T07:53:38.743Z,7.13
2018-09-19T07:56:06.486Z,6.60
2018-09-19T07:58:33.903Z,6.70
2018-09-19T08:01:01.423Z,7.50
2018-09-19T08:03:29.098Z,6.90
2018-09-19T08:05:56.728Z,7.10
2018-09-19T08:08:24.175Z,8.47
2018-09-19T08:10:52.037Z,8.13
2018-09-19T08:13:19.555Z,7.00
2018-09-19T08:15:47.083Z,6.67
2018-09-19T08:18:14.820Z,6.87
2018-09-19T08:20:42.380Z,8.00
2018-09-19T08:23:10.294Z,7.77
2018-09-19T08:25:37.948Z,7.33
2018-09-19T08:28:05.437Z,7.63
2018-09-19T08:30:32.925Z,7.37
2018-09-19T08:33:00.592Z,7.90
2018-09-19T08:35:28.034Z,7.27
2018-09-19T08:37:55.472Z,8.00
2018-09-19T08:40:23.017Z,7.40
2018-09-19T08:42:50.455Z,7.60
2018-09-19T08:45:18.017Z,7.87
2018-09-19T08:47:45.777Z,7.27
2018-09-19T08:50:13.214Z,8.17
2018-09-19T08:52:41.117Z,7.57
2018-09-19T08:55:08.781Z,8.03
2018-09-19T08:57:36.234Z,8.10
2018-09-19T09:00:03.772Z,7.60
2018-09-19T09:02:31.151Z,7.60
2018-09-19T09:04:58.599Z,8.50
2018-09-19T09:07:26.043Z,8.30
2018-09-19T09:09:53.754Z,8.87
2018-09-19T09:12:21.306Z,9.57
2018-09-19T09:14:48.729Z,7.77
2018-09-19T09:17:16.187Z,8.10
2018-09-19T09:19:43.638Z,7.17
2018-09-19T09:22:11.032Z,7.80
2018-09-19T09:24:38.601Z,7.23
2018-09-19T09:27:06.170Z,7.47
2018-09-19T09:29:33.507Z,7.17
2018-09-19T09:32:01.090Z,6.80
2018-09-19T09:34:28.560Z,7.10
2018-09-19T09:36:56.028Z,7.23
2018-09-19T09:39:23.591Z,7.40
2018-09-19T09:41:51.028Z,6.93
2018-09-19T09:44:18.449Z,6.47
2018-09-19T09:46:46.253Z,6.37
2018-09-19T09:49:13.752Z,6.50
2018-09-19T09:51:41.204Z,7.00
2018-09-19T09:54:09.211Z,6.70
2018-09-19T09:56:36.666Z,7.10
2018-09-19T09:59:34.930Z,6.50
2018-09-19T10:02:02.361Z,6.20
2018-09-19T10:04:29.780Z,6.03
2018-09-19T10:06:57.580Z,5.93
2018-09-19T10:09:25.109Z,6.37
2018-09-19T10:11:52.530Z,6.40
2018-09-19T10:14:20.133Z,6.53
2018-09-19T10:16:47.596Z,6.97
2018-09-19T10:19:15.070Z,5.57
2018-09-19T10:21:42.799Z,5.67
2018-09-19T10:24:10.217Z,6.20
2018-09-19T10:26:37.781Z,5.93
2018-09-19T10:29:05.536Z,5.93
2018-09-19T10:31:32.965Z,6.00
2018-09-19T10:34:00.352Z,6.07
2018-09-19T10:36:27.988Z,5.83
2018-09-19T10:38:55.428Z,5.87
2018-09-19T10:41:22.921Z,5.50
2018-09-19T10:43:50.822Z,4.90
2018-09-19T10:46:18.322Z,5.63
2018-09-19T10:48:46.208Z,5.20
2018-09-19T10:51:13.877Z,5.53
2018-09-19T10:53:41.307Z,5.40
2018-09-19T10:56:08.910Z,5.30
2018-09-19T10:58:36.536Z,5.37
2018-09-19T11:01:04.002Z,4.80
2018-09-19T11:03:31.481Z,4.97
2018-09-19T11:05:59.148Z,5.10
2018-09-19T11:08:26.594Z,4.53
2018-09-19T11:10:54.081Z,5.17
2018-09-19T11:13:21.659Z,5.20
2018-09-19T11:15:49.087Z,4.67
2018-09-19T11:18:16.563Z,4.53
2018-09-19T11:20:44.120Z,4.50
2018-09-19T11:23:11.591Z,4.70
2018-09-19T11:25:38.997Z,4.53
2018-09-19T11:28:06.568Z,4.47
2018-09-19T11:30:34.064Z,4.63
2018-09-19T11:33:01.508Z,4.73
2018-09-19T11:35:29.127Z,4.43
2018-09-19T11:37:56.707Z,4.30
2018-09-19T11:40:24.164Z,4.07
2018-09-19T11:42:51.886Z,4.43
2018-09-19T11:45:19.539Z,4.17
2018-09-19T11:47:46.962Z,4.50
2018-09-19T11:50:14.670Z,4.10
2018-09-19T11:52:42.179Z,3.77
2018-09-19T11:55:09.629Z,4.10
2018-09-19T11:57:37.673Z,4.10
2018-09-19T12:00:05.638Z,4.17
2018-09-19T12:02:33.085Z,4.70
2018-09-19T12:05:00.966Z,4.30
2018-09-19T12:07:28.458Z,4.87
2018-09-19T12:09:55.948Z,4.60
2018-09-19T12:12:23.678Z,4.27
2018-09-19T12:14:51.147Z,5.40
2018-09-19T12:17:18.607Z,4.90
2018-09-19T12:19:46.205Z,4.20
2018-09-19T12:22:13.647Z,4.57
2018-09-19T12:24:41.127Z,4.77
2018-09-19T12:27:08.807Z,4.03
2018-09-19T12:29:36.262Z,5.03
2018-09-19T12:32:03.693Z,4.10
2018-09-19T12:34:31.318Z,4.57
2018-09-19T12:36:58.778Z,4.20
2018-09-19T12:39:26.237Z,4.80
2018-09-19T12:41:53.948Z,4.97
2018-09-19T12:44:21.428Z,4.80
2018-09-19T12:46:48.912Z,4.80
2018-09-19T12:49:16.788Z,4.50
2018-09-19T12:51:44.254Z,4.63
2018-09-19T12:54:11.681Z,4.87
2018-09-19T12:56:39.467Z,4.83
2018-09-19T12:59:07.100Z,4.90
2018-09-19T13:01:34.548Z,5.20
2018-09-19T13:04:02.722Z,5.30
2018-09-19T13:06:30.155Z,4.80
2018-09-19T13:08:57.631Z,4.90
2018-09-19T13:11:25.263Z,4.60
2018-09-19T13:13:52.665Z,5.43
2018-09-19T13:16:20.162Z,4.73
2018-09-19T13:18:47.784Z,5.10
2018-09-19T13:21:15.273Z,4.67
2018-09-19T13:23:42.740Z,4.70
2018-09-19T13:26:10.401Z,4.80
2018-09-19T13:28:37.932Z,4.73
2018-09-19T13:31:05.481Z,4.57
2018-09-19T13:33:33.174Z,4.90
2018-09-19T13:36:00.677Z,4.53
2018-09-19T13:38:28.131Z,4.63
2018-09-19T13:40:55.774Z,4.73
2018-09-19T13:43:23.277Z,4.50
2018-09-19T13:45:50.778Z,4.30
2018-09-19T13:48:18.530Z,4.20
2018-09-19T13:51:19.882Z,4.50
2018-09-19T13:53:47.615Z,3.93
2018-09-19T13:56:15.109Z,4.40
2018-09-19T13:58:42.613Z,4.40
2018-09-19T14:01:10.648Z,4.47
2018-09-19T14:03:38.077Z,4.70
2018-09-19T14:06:05.732Z,4.50
2018-09-19T14:08:33.475Z,4.50
2018-09-19T14:11:00.932Z,3.87
2018-09-19T14:13:28.355Z,4.17
2018-09-19T14:15:56.030Z,4.27
2018-09-19T14:18:23.524Z,4.53
2018-09-19T14:20:51.025Z,4.83
2018-09-19T14:23:18.782Z,4.00
2018-09-19T14:25:46.270Z,4.13
2018-09-19T14:28:13.984Z,4.40
2018-09-19T14:30:41.690Z,3.83
2018-09-19T14:33:09.243Z,3.80
2018-09-19T14:38:05.607Z,4.07
2018-09-19T14:40:33.018Z,4.10
2018-09-19T14:43:00.521Z,3.83
2018-09-19T14:45:28.069Z,4.10
2018-09-19T14:47:55.539Z,3.73
2018-09-19T14:50:23.060Z,4.13
2018-09-19T14:52:50.656Z,3.87
2018-09-19T14:55:18.171Z,3.27
2018-09-19T14:57:45.766Z,4.23
2018-09-19T15:00:13.282Z,3.33
2018-09-19T15:02:41.000Z,4.10
2018-09-19T15:05:08.495Z,3.90
2018-09-19T15:07:36.187Z,4.00
2018-09-19T15:10:03.715Z,3.90
2018-09-19T15:12:31.261Z,3.70
2018-09-19T15:14:58.898Z,4.40
2018-09-19T15:17:26.346Z,4.53
2018-09-19T15:20:00.490Z,4.60
2018-09-19T15:22:27.964Z,4.00
2018-09-19T15:24:55.407Z,4.10
2018-09-19T15:27:23.093Z,3.93
2018-09-19T15:29:50.550Z,4.27
2018-09-19T15:32:17.982Z,3.93
2018-09-19T15:34:45.544Z,5.27
2018-09-19T15:37:12.991Z,4.33
2018-09-19T15:39:40.452Z,4.43
2018-09-19T15:42:07.962Z,3.73
2018-09-19T15:44:35.465Z,4.42
2018-09-19T15:47:02.986Z,4.17
2018-09-19T15:49:30.669Z,3.97
2018-09-19T15:51:58.105Z,4.53
2018-09-19T15:54:25.530Z,4.30
2018-09-19T15:56:53.156Z,3.80
2018-09-19T15:59:20.624Z,4.23
2018-09-19T16:01:48.112Z,3.93
2018-09-19T16:04:15.740Z,3.70
2018-09-19T16:06:43.201Z,4.33
2018-09-19T16:09:11.504Z,4.70
2018-09-19T16:11:39.212Z,4.83
2018-09-19T16:14:06.765Z,5.60
2018-09-19T16:16:34.204Z,5.67
2018-09-19T16:19:01.817Z,5.90
2018-09-19T16:21:29.347Z,5.77
2018-09-19T16:23:56.808Z,5.87
2018-09-19T16:26:24.526Z,5.33
2018-09-19T16:28:52.015Z,5.47
2018-09-19T16:31:19.444Z,5.30
2018-09-19T16:33:47.061Z,5.40
2018-09-19T16:36:14.543Z,5.53
2018-09-19T16:38:41.947Z,5.57
2018-09-19T16:41:09.723Z,5.50
2018-09-19T16:43:37.223Z,4.77
2018-09-19T16:46:04.681Z,5.17
2018-09-19T16:48:32.413Z,5.23
2018-09-19T16:50:59.899Z,5.33
2018-09-19T16:53:27.330Z,5.37
2018-09-19T16:55:54.987Z,5.60
2018-09-19T16:58:22.611Z,5.23
2018-09-19T17:00:50.148Z,5.50
2018-09-19T17:03:17.728Z,5.30
2018-09-19T17:05:45.541Z,5.73
2018-09-19T17:08:13.052Z,5.53
2018-09-19T17:10:40.906Z,5.70
2018-09-19T17:13:08.633Z,5.57
2018-09-19T17:15:36.151Z,6.30
2018-09-19T17:18:03.787Z,6.60
2018-09-19T17:20:31.245Z,5.73
2018-09-19T17:22:58.724Z,5.70
2018-09-19T17:25:26.249Z,5.67
2018-09-19T17:27:53.726Z,5.50
2018-09-19T17:30:21.153Z,5.50
2018-09-19T17:32:48.750Z,5.17
2018-09-19T17:35:16.282Z,5.87
2018-09-19T17:37:43.717Z,5.40
2018-09-19T17:40:11.442Z,5.43
2018-09-19T17:42:38.905Z,5.20
2018-09-19T17:45:07.103Z,6.30
2018-09-19T17:47:34.925Z,5.23
2018-09-19T17:50:02.480Z,5.23
2018-09-19T17:52:29.975Z,4.93
2018-09-19T17:54:57.784Z,5.37
2018-09-19T17:57:25.298Z,4.90
2018-09-19T17:59:52.833Z,5.40
2018-09-19T18:02:20.449Z,4.83
2018-09-19T18:04:47.970Z,5.57
2018-09-19T18:07:15.552Z,5.60
2018-09-19T18:09:43.165Z,5.00
2018-09-19T18:12:10.649Z,4.93
2018-09-19T18:14:38.103Z,5.77
2018-09-19T18:17:05.850Z,6.47
2018-09-19T18:19:33.314Z,6.23
2018-09-19T18:22:00.783Z,6.10
2018-09-19T18:24:28.239Z,5.63
2018-09-19T18:26:55.751Z,5.97
2018-09-19T18:29:23.242Z,5.50
2018-09-19T18:31:50.747Z,6.10
2018-09-19T18:34:18.258Z,5.33
2018-09-19T18:36:45.727Z,6.10
2018-09-19T18:39:13.152Z,5.00
2018-09-19T18:41:40.581Z,4.83
2018-09-19T18:44:08.148Z,5.30
2018-09-19T18:46:35.632Z,5.20
2018-09-19T18:49:03.114Z,5.87
2018-09-19T18:51:30.614Z,5.53
2018-09-19T18:53:58.176Z,4.90
2018-09-19T18:56:25.655Z,5.50
2018-09-19T18:58:53.141Z,5.50
2018-09-19T19:01:20.749Z,5.03
2018-09-19T19:03:48.306Z,5.30
2018-09-19T19:06:15.798Z,5.10
2018-09-19T19:08:43.608Z,5.40
2018-09-19T19:11:11.237Z,5.07
2018-09-19T19:13:38.753Z,4.87
2018-09-19T19:16:06.431Z,4.40
2018-09-19T19:18:33.927Z,5.40
2018-09-19T19:21:01.430Z,5.17
2018-09-19T19:23:28.942Z,4.80
2018-09-19T19:25:56.442Z,5.57
2018-09-19T19:28:23.900Z,5.40
2018-09-19T19:30:51.468Z,5.40
2018-09-19T19:33:18.928Z,5.10
2018-09-19T19:35:46.474Z,5.03
2018-09-19T19:38:14.111Z,4.60
2018-09-19T19:40:41.678Z,5.10
2018-09-19T19:43:09.110Z,4.60
2018-09-19T19:45:36.660Z,4.63
2018-09-19T19:48:04.137Z,5.30
2018-09-19T19:50:31.610Z,5.33
2018-09-19T19:52:59.297Z,5.37
2018-09-19T19:55:26.771Z,5.07
2018-09-19T19:57:54.257Z,5.47
2018-09-19T20:00:21.862Z,5.40
2018-09-19T20:02:49.356Z,5.33
2018-09-19T20:05:16.821Z,5.37
2018-09-19T20:07:44.388Z,6.10
2018-09-19T20:10:12.466Z,5.93
2018-09-19T20:12:39.948Z,6.30
2018-09-19T20:15:07.607Z,5.60
2018-09-19T20:17:35.075Z,5.83
2018-09-19T20:20:02.522Z,6.47
2018-09-19T20:22:30.050Z,6.30
2018-09-19T20:24:57.532Z,6.27
2018-09-19T20:27:25.010Z,5.97
2018-09-19T20:29:52.564Z,6.37
2018-09-19T20:32:19.991Z,6.40
2018-09-19T20:34:47.493Z,6.53
2018-09-19T20:37:14.993Z,7.00
2018-09-19T20:39:42.496Z,5.87
2018-09-19T20:42:09.972Z,6.43
2018-09-19T20:44:37.643Z,5.43
2018-09-19T20:47:05.178Z,6.20
2018-09-19T20:49:32.661Z,6.40
2018-09-19T20:52:00.345Z,8.30
2018-09-19T20:54:27.737Z,6.80
2018-09-19T20:56:55.166Z,6.97
2018-09-19T20:59:22.858Z,5.97
2018-09-19T21:01:50.275Z,5.33
2018-09-19T21:04:17.720Z,5.00
2018-09-19T21:06:45.350Z,5.20
2018-09-19T21:09:12.810Z,5.70
2018-09-19T21:11:40.799Z,5.60
2018-09-19T21:14:08.474Z,5.33
2018-09-19T21:16:35.981Z,4.83
2018-09-19T21:19:03.480Z,5.43
2018-09-19T21:21:31.157Z,4.97
2018-09-19T21:23:58.937Z,5.77
2018-09-19T21:26:26.438Z,4.90
2018-09-19T21:28:54.123Z,6.23
2018-09-19T21:31:21.587Z,4.60
2018-09-19T21:33:49.040Z,4.73
2018-09-19T21:36:16.682Z,4.20
2018-09-19T21:38:44.167Z,4.97
2018-09-19T21:41:11.610Z,4.00
2018-09-19T21:43:39.140Z,4.23
2018-09-19T21:46:06.551Z,3.97
2018-09-19T21:48:34.008Z,4.17
2018-09-19T21:51:01.618Z,4.20
2018-09-19T21:53:29.027Z,3.80
2018-09-19T21:55:56.548Z,4.00
2018-09-19T21:58:24.105Z,3.67
2018-09-19T22:00:57.177Z,3.40
2018-09-19T22:03:24.896Z,3.40
2018-09-19T22:05:52.354Z,3.37
2018-09-19T22:08:19.787Z,3.70
2018-09-19T22:10:47.523Z,3.67
2018-09-19T22:13:15.148Z,3.60
2018-09-19T22:15:42.706Z,3.27
2018-09-19T22:18:10.377Z,3.40
2018-09-19T22:20:37.824Z,3.40
2018-09-19T22:23:05.402Z,3.10
2018-09-19T22:25:33.042Z,3.60
2018-09-19T22:28:00.448Z,3.80
2018-09-19T22:30:27.835Z,3.80
2018-09-19T22:32:55.523Z,3.90
2018-09-19T22:35:22.950Z,4.20
2018-09-19T22:37:50.398Z,4.00
2018-09-19T22:40:18.044Z,4.47
2018-09-19T22:42:45.546Z,4.73
2018-09-19T22:45:13.025Z,4.57
2018-09-19T22:47:41.585Z,3.83
2018-09-19T22:50:09.042Z,4.10
2018-09-19T22:52:36.450Z,4.10
2018-09-19T22:55:04.342Z,4.07
2018-09-19T22:57:31.810Z,3.90
2018-09-19T22:59:59.211Z,4.10
2018-09-19T23:02:26.841Z,4.53
2018-09-19T23:04:54.361Z,3.97
2018-09-19T23:07:21.840Z,4.07
2018-09-19T23:09:50.024Z,4.07
2018-09-19T23:12:17.456Z,3.83
2018-09-19T23:14:45.313Z,4.60
2018-09-19T23:17:12.957Z,3.93
2018-09-19T23:19:40.417Z,4.90
2018-09-19T23:22:07.857Z,4.20
2018-09-19T23:24:35.710Z,4.00
2018-09-19T23:27:03.183Z,4.40
2018-09-19T23:29:30.631Z,4.40
2018-09-19T23:31:58.250Z,4.80
2018-09-19T23:34:25.740Z,4.37
2018-09-19T23:36:53.178Z,4.93
2018-09-19T23:39:20.838Z,4.47
2018-09-19T23:41:48.286Z,4.57
2018-09-19T23:44:15.758Z,4.70
2018-09-19T23:46:43.438Z,3.90
2018-09-19T23:49:10.863Z,4.80
2018-09-19T23:51:38.411Z,5.03
2018-09-19T23:54:05.984Z,4.87
2018-09-19T23:56:33.416Z,4.50
2018-09-19T23:59:00.922Z,4.73
